Time;durP1;ratioP1;P1;durP2;ratioP2;P2;SDS_P1;SDS_P2;PMS_P1;PMS_P2;Temp;Humidity;BMP_temperature;BMP_pressure;BME280_temperature;BME280_humidity;BME280_pressure;Samples;Min_cycle;Max_cycle;Signal;HPM_P1;HPM_P2
2023/10/16 00:02:14;;;;;;;;;;;19.30;44.80;;;;;;5048290;28;19928;-65
2023/10/16 00:04:43;;;;;;;;;;;19.30;44.80;;;;;;5049237;28;19925;-65
2023/10/16 00:07:12;;;;;;;;;;;19.30;44.80;;;;;;5048488;28;19964;-65
2023/10/16 00:09:40;;;;;;;;;;;19.30;44.90;;;;;;5045733;28;19929;-65
2023/10/16 00:12:07;;;;;;;;;;;19.30;44.80;;;;;;5048987;28;19921;-65
2023/10/16 00:14:35;;;;;;;;;;;19.30;44.90;;;;;;5049199;28;19943;-65
2023/10/16 00:17:03;;;;;;;;;;;19.30;45.00;;;;;;5040321;28;19925;-65
2023/10/16 00:19:33;;;;;;;;;;;19.30;44.90;;;;;;5048888;28;19921;-65
2023/10/16 00:22:00;;;;;;;;;;;19.30;44.90;;;;;;5049955;28;19967;-65
2023/10/16 00:24:28;;;;;;;;;;;19.30;44.90;;;;;;5049124;28;19925;-65
2023/10/16 00:26:55;;;;;;;;;;;19.30;44.90;;;;;;5030254;28;19921;-65
2023/10/16 00:29:24;;;;;;;;;;;19.30;44.90;;;;;;5049952;28;19921;-65
2023/10/16 00:31:54;;;;;;;;;;;19.30;44.90;;;;;;5050438;28;19943;-65
2023/10/16 00:34:25;;;;;;;;;;;19.30;44.80;;;;;;5047461;28;19928;-65
2023/10/16 00:36:53;;;;;;;;;;;19.30;44.80;;;;;;5048685;28;19931;-65
2023/10/16 00:39:20;;;;;;;;;;;19.30;44.90;;;;;;5048467;28;19921;-65
2023/10/16 00:41:50;;;;;;;;;;;19.30;44.80;;;;;;5044835;28;19925;-65
2023/10/16 00:44:17;;;;;;;;;;;19.30;44.80;;;;;;5042961;28;20382;-65
2023/10/16 00:46:45;;;;;;;;;;;19.30;44.90;;;;;;5048882;28;19921;-65
2023/10/16 00:49:14;;;;;;;;;;;19.20;44.90;;;;;;5050315;28;19943;-65
2023/10/16 00:51:40;;;;;;;;;;;19.30;45.00;;;;;;5043651;28;19931;-65
2023/10/16 00:54:15;;;;;;;;;;;19.20;44.90;;;;;;5051747;28;19931;-65
2023/10/16 00:56:42;;;;;;;;;;;19.20;44.90;;;;;;5050301;28;19921;-65
2023/10/16 00:59:09;;;;;;;;;;;19.20;44.90;;;;;;5052383;28;19931;-65
2023/10/16 01:01:43;;;;;;;;;;;19.20;44.90;;;;;;5052530;28;19921;-65
2023/10/16 01:04:10;;;;;;;;;;;19.20;45.00;;;;;;5053181;28;20410;-65
2023/10/16 01:06:41;;;;;;;;;;;19.20;45.00;;;;;;5052134;28;19920;-65
2023/10/16 01:09:09;;;;;;;;;;;19.20;44.90;;;;;;5051441;28;20405;-65
2023/10/16 01:11:37;;;;;;;;;;;19.20;45.00;;;;;;5052046;28;19921;-65
2023/10/16 01:14:04;;;;;;;;;;;19.30;45.00;;;;;;5051882;28;19927;-65
2023/10/16 01:16:30;;;;;;;;;;;19.20;44.90;;;;;;5053663;28;19920;-65
2023/10/16 01:19:00;;;;;;;;;;;19.20;45.00;;;;;;5053790;28;19982;-65
2023/10/16 01:21:27;;;;;;;;;;;19.20;45.00;;;;;;5051752;28;19956;-65
2023/10/16 01:24:02;;;;;;;;;;;19.20;45.10;;;;;;5050972;28;19925;-65
2023/10/16 01:26:29;;;;;;;;;;;19.20;45.10;;;;;;5051549;28;19925;-65
2023/10/16 01:28:56;;;;;;;;;;;19.20;45.10;;;;;;5053253;28;19928;-64
2023/10/16 01:31:23;;;;;;;;;;;19.20;45.00;;;;;;5051478;28;19929;-65
2023/10/16 01:33:51;;;;;;;;;;;19.20;45.00;;;;;;5051528;28;19932;-65
2023/10/16 01:36:17;;;;;;;;;;;19.20;45.00;;;;;;5049111;28;19921;-65
2023/10/16 01:38:44;;;;;;;;;;;19.20;44.90;;;;;;5051650;28;19966;-65
2023/10/16 01:41:15;;;;;;;;;;;19.20;44.90;;;;;;5048106;28;19920;-65
2023/10/16 01:43:43;;;;;;;;;;;19.20;44.90;;;;;;5049895;28;19927;-65
2023/10/16 01:46:10;;;;;;;;;;;19.20;44.90;;;;;;5052323;28;19931;-65
2023/10/16 01:48:40;;;;;;;;;;;19.20;45.00;;;;;;5051237;28;19931;-65
2023/10/16 01:51:09;;;;;;;;;;;19.20;45.00;;;;;;5051649;28;19920;-65
2023/10/16 01:53:39;;;;;;;;;;;19.20;44.90;;;;;;5050763;28;19965;-65
2023/10/16 01:56:13;;;;;;;;;;;19.20;45.00;;;;;;5051001;28;19920;-65
2023/10/16 01:58:42;;;;;;;;;;;19.20;45.00;;;;;;5048646;28;20084;-65
2023/10/16 02:01:10;;;;;;;;;;;19.20;45.00;;;;;;5052540;28;19925;-65
2023/10/16 02:03:36;;;;;;;;;;;19.20;45.00;;;;;;5050984;28;19921;-65
2023/10/16 02:06:03;;;;;;;;;;;19.20;45.00;;;;;;5052162;28;19925;-65
2023/10/16 02:08:30;;;;;;;;;;;19.20;45.00;;;;;;5050633;28;19947;-65
2023/10/16 02:10:58;;;;;;;;;;;19.20;45.00;;;;;;5049914;28;19921;-65
2023/10/16 02:13:25;;;;;;;;;;;19.20;45.00;;;;;;5047268;28;19921;-65
2023/10/16 02:15:53;;;;;;;;;;;19.20;45.00;;;;;;5049026;28;19948;-65
2023/10/16 02:18:22;;;;;;;;;;;19.20;45.00;;;;;;5050870;28;19924;-64
2023/10/16 02:20:49;;;;;;;;;;;19.20;45.10;;;;;;5049684;28;19929;-65
2023/10/16 02:23:17;;;;;;;;;;;19.20;45.00;;;;;;5049458;28;19960;-65
2023/10/16 02:25:45;;;;;;;;;;;19.20;45.00;;;;;;5049808;28;19921;-64
2023/10/16 02:28:13;;;;;;;;;;;19.20;45.00;;;;;;5050499;28;20016;-65
2023/10/16 02:30:41;;;;;;;;;;;19.20;45.00;;;;;;5047803;28;19925;-65
2023/10/16 02:33:18;;;;;;;;;;;19.20;45.00;;;;;;5047065;28;19921;-65
2023/10/16 02:35:48;;;;;;;;;;;19.20;45.10;;;;;;5046785;28;19924;-65
2023/10/16 02:38:23;;;;;;;;;;;19.20;45.00;;;;;;5048820;28;19920;-65
2023/10/16 02:40:52;;;;;;;;;;;19.20;45.00;;;;;;5049136;28;19928;-65
2023/10/16 02:43:20;;;;;;;;;;;19.20;45.00;;;;;;5043405;28;19968;-65
2023/10/16 02:45:51;;;;;;;;;;;19.20;45.00;;;;;;5049006;28;19921;-64
2023/10/16 02:48:20;;;;;;;;;;;19.20;45.00;;;;;;5048999;28;19929;-65
2023/10/16 02:50:49;;;;;;;;;;;19.10;44.90;;;;;;5048225;28;19927;-65
2023/10/16 02:53:21;;;;;;;;;;;19.20;45.10;;;;;;5048908;28;20004;-65
2023/10/16 02:55:52;;;;;;;;;;;19.20;45.10;;;;;;5049346;28;19931;-65
2023/10/16 02:58:20;;;;;;;;;;;19.10;45.00;;;;;;5050106;28;19991;-64
2023/10/16 03:00:53;;;;;;;;;;;19.10;45.00;;;;;;5049588;28;19936;-65
2023/10/16 03:03:24;;;;;;;;;;;19.20;45.10;;;;;;5047924;28;20317;-64
2023/10/16 03:05:51;;;;;;;;;;;19.20;45.10;;;;;;5048274;28;20015;-64
2023/10/16 03:08:19;;;;;;;;;;;19.10;45.00;;;;;;5049710;28;20363;-65
2023/10/16 03:10:46;;;;;;;;;;;19.20;45.10;;;;;;5049843;28;20011;-64
2023/10/16 03:13:14;;;;;;;;;;;19.20;45.10;;;;;;5049669;28;20224;-64
2023/10/16 03:15:46;;;;;;;;;;;19.20;45.10;;;;;;5049363;28;19999;-65
2023/10/16 03:18:17;;;;;;;;;;;19.20;45.10;;;;;;5049324;28;19921;-65
2023/10/16 03:20:46;;;;;;;;;;;19.20;45.10;;;;;;5046760;28;19932;-65
2023/10/16 03:23:18;;;;;;;;;;;19.20;45.10;;;;;;5048044;28;19928;-65
2023/10/16 03:25:54;;;;;;;;;;;19.20;45.10;;;;;;5046769;28;20023;-65
2023/10/16 03:28:21;;;;;;;;;;;19.10;45.00;;;;;;5050153;28;19974;-65
2023/10/16 03:30:49;;;;;;;;;;;19.10;45.00;;;;;;5049512;28;19932;-65
2023/10/16 03:33:16;;;;;;;;;;;19.20;45.10;;;;;;5049288;28;20004;-65
2023/10/16 03:35:44;;;;;;;;;;;19.10;45.00;;;;;;5048475;28;19956;-65
2023/10/16 03:38:20;;;;;;;;;;;19.20;45.10;;;;;;5046681;28;19924;-65
2023/10/16 03:40:50;;;;;;;;;;;19.10;45.00;;;;;;5047075;28;19925;-65
2023/10/16 03:43:17;;;;;;;;;;;19.10;45.00;;;;;;5049243;28;19924;-65
2023/10/16 03:45:44;;;;;;;;;;;19.10;45.10;;;;;;5049390;28;20183;-65
2023/10/16 03:48:11;;;;;;;;;;;19.10;45.10;;;;;;5041179;28;19936;-65
2023/10/16 03:50:39;;;;;;;;;;;19.10;45.10;;;;;;5049203;28;19921;-65
2023/10/16 03:53:07;;;;;;;;;;;19.10;45.10;;;;;;5048870;28;19921;-65
2023/10/16 03:55:43;;;;;;;;;;;19.20;45.20;;;;;;5048977;28;19921;-65
2023/10/16 03:58:10;;;;;;;;;;;19.20;45.10;;;;;;5043668;28;20013;-65
2023/10/16 04:00:50;;;;;;;;;;;19.20;45.10;;;;;;5050586;28;20380;-65
2023/10/16 04:03:18;;;;;;;;;;;19.20;45.20;;;;;;5043580;28;19921;-65
2023/10/16 04:05:46;;;;;;;;;;;19.10;45.10;;;;;;5050276;28;19967;-65
2023/10/16 04:08:14;;;;;;;;;;;19.20;45.20;;;;;;5049017;28;19920;-65
2023/10/16 04:10:46;;;;;;;;;;;19.20;45.20;;;;;;5048409;28;19925;-65
2023/10/16 04:13:13;;;;;;;;;;;19.10;45.10;;;;;;5048891;28;19927;-65
2023/10/16 04:15:59;;;;;;;;;;;19.10;45.10;;;;;;5050467;28;19921;-65
2023/10/16 04:18:28;;;;;;;;;;;19.20;45.20;;;;;;5049670;28;19921;-65
2023/10/16 04:21:09;;;;;;;;;;;19.10;45.10;;;;;;5050135;28;19990;-65
2023/10/16 04:23:37;;;;;;;;;;;19.10;45.10;;;;;;5050777;28;20089;-65
2023/10/16 04:26:31;;;;;;;;;;;19.10;45.10;;;;;;5049175;28;19927;-65
2023/10/16 04:31:45;;;;;;;;;;;19.10;45.10;;;;;;5045159;28;19925;-65
2023/10/16 04:34:24;;;;;;;;;;;19.10;45.20;;;;;;5052276;28;20224;-65
2023/10/16 04:36:53;;;;;;;;;;;19.10;45.10;;;;;;5052645;28;19932;-65
2023/10/16 04:47:48;;;;;;;;;;;19.10;45.20;;;;;;5049200;28;19921;-65
2023/10/16 04:50:15;;;;;;;;;;;19.10;45.20;;;;;;5041261;28;19960;-65
2023/10/16 04:58:38;;;;;;;;;;;19.10;45.20;;;;;;5037838;28;19924;-66
2023/10/16 05:01:33;;;;;;;;;;;19.10;45.30;;;;;;5042556;28;19932;-65
2023/10/16 05:04:49;;;;;;;;;;;19.10;45.30;;;;;;5046308;28;19966;-65
2023/10/16 05:07:17;;;;;;;;;;;19.10;45.30;;;;;;5048425;28;19943;-65
2023/10/16 05:18:11;;;;;;;;;;;19.10;45.40;;;;;;5051467;28;19921;-65
2023/10/16 05:21:16;;;;;;;;;;;19.10;45.50;;;;;;5051025;28;20342;-65
2023/10/16 06:15:52;;;;;;;;;;;19.10;45.80;;;;;;5049802;28;19936;-65
2023/10/16 06:18:19;;;;;;;;;;;19.10;45.80;;;;;;5050645;28;19932;-65
2023/10/16 06:20:47;;;;;;;;;;;19.10;45.90;;;;;;5049068;28;19956;-65
2023/10/16 06:23:15;;;;;;;;;;;19.20;45.90;;;;;;5045387;28;19927;-65
2023/10/16 06:25:47;;;;;;;;;;;19.20;45.90;;;;;;5046301;28;19925;-65
2023/10/16 06:28:15;;;;;;;;;;;19.20;46.00;;;;;;5046174;28;19990;-64
2023/10/16 06:30:42;;;;;;;;;;;19.20;46.00;;;;;;5048735;28;19935;-64
2023/10/16 06:33:08;;;;;;;;;;;19.10;45.90;;;;;;5049678;28;19920;-64
2023/10/16 06:35:35;;;;;;;;;;;19.20;46.00;;;;;;5049234;28;19921;-67
2023/10/16 06:38:11;;;;;;;;;;;19.10;46.00;;;;;;5049954;28;19924;-64
2023/10/16 06:40:40;;;;;;;;;;;19.20;46.10;;;;;;5033370;28;19921;-64
2023/10/16 06:43:13;;;;;;;;;;;19.10;46.00;;;;;;5050690;28;19921;-64
2023/10/16 06:45:42;;;;;;;;;;;19.20;46.30;;;;;;5050156;28;19920;-64
2023/10/16 06:48:14;;;;;;;;;;;19.20;46.50;;;;;;5040955;28;20452;-65
2023/10/16 06:50:53;;;;;;;;;;;19.20;46.70;;;;;;5041465;28;19921;-64
2023/10/16 06:53:22;;;;;;;;;;;19.20;46.90;;;;;;5043932;28;19956;-64
2023/10/16 06:55:50;;;;;;;;;;;19.20;46.90;;;;;;5048424;28;19947;-64
2023/10/16 06:58:18;;;;;;;;;;;19.20;46.90;;;;;;5044186;28;20011;-64
2023/10/16 07:00:47;;;;;;;;;;;19.30;47.00;;;;;;5045603;28;19921;-64
2023/10/16 07:03:13;;;;;;;;;;;19.30;47.10;;;;;;5050523;28;19925;-64
2023/10/16 07:05:43;;;;;;;;;;;19.30;47.10;;;;;;5047426;28;19927;-65
2023/10/16 07:08:09;;;;;;;;;;;19.30;47.00;;;;;;5041268;28;20316;-65
2023/10/16 07:10:40;;;;;;;;;;;19.30;47.00;;;;;;5044626;28;19927;-66
2023/10/16 07:13:07;;;;;;;;;;;19.30;47.10;;;;;;5047720;28;19983;-66
2023/10/16 07:15:34;;;;;;;;;;;19.30;47.10;;;;;;5045151;28;19943;-66
2023/10/16 07:18:05;;;;;;;;;;;19.30;47.20;;;;;;5034913;28;19925;-66
2023/10/16 07:20:33;;;;;;;;;;;19.30;47.10;;;;;;5046384;28;19993;-66
2023/10/16 07:23:00;;;;;;;;;;;19.40;47.20;;;;;;5050178;28;19921;-64
2023/10/16 07:25:37;;;;;;;;;;;19.40;47.10;;;;;;5049931;28;19920;-65
2023/10/16 07:28:09;;;;;;;;;;;19.30;47.00;;;;;;5038015;28;20015;-66
2023/10/16 07:30:36;;;;;;;;;;;19.30;47.00;;;;;;5048840;28;19921;-66
2023/10/16 07:33:03;;;;;;;;;;;19.40;47.20;;;;;;5048930;28;19928;-67
2023/10/16 07:35:30;;;;;;;;;;;19.40;47.20;;;;;;5050173;28;19921;-66
2023/10/16 07:37:58;;;;;;;;;;;19.40;47.10;;;;;;5048570;28;20376;-68
2023/10/16 07:40:25;;;;;;;;;;;19.40;47.20;;;;;;5048554;28;19928;-64
2023/10/16 07:42:53;;;;;;;;;;;19.40;47.10;;;;;;5048808;28;20007;-67
2023/10/16 07:45:21;;;;;;;;;;;19.40;47.10;;;;;;5048886;28;19921;-64
2023/10/16 07:47:48;;;;;;;;;;;19.40;47.10;;;;;;5029534;28;19921;-66
2023/10/16 07:50:15;;;;;;;;;;;19.40;47.20;;;;;;5049182;28;19960;-65
2023/10/16 07:52:43;;;;;;;;;;;19.40;47.20;;;;;;5048983;28;19974;-66
2023/10/16 07:55:18;;;;;;;;;;;19.40;47.20;;;;;;5050246;28;20019;-64
2023/10/16 07:57:45;;;;;;;;;;;19.40;47.20;;;;;;5048973;28;19975;-64
2023/10/16 08:00:14;;;;;;;;;;;19.40;47.20;;;;;;5048195;28;19932;-64
2023/10/16 08:02:45;;;;;;;;;;;19.50;47.30;;;;;;5052117;28;19925;-64
2023/10/16 08:05:15;;;;;;;;;;;19.50;47.20;;;;;;5048272;28;19957;-65
2023/10/16 08:07:47;;;;;;;;;;;19.50;47.30;;;;;;5050495;28;19925;-64
2023/10/16 08:10:40;;;;;;;;;;;19.50;47.20;;;;;;5053856;28;20390;-65
2023/10/16 08:13:12;;;;;;;;;;;19.50;47.30;;;;;;5053875;28;19921;-66
2023/10/16 08:15:44;;;;;;;;;;;19.50;47.30;;;;;;5053682;28;19927;-66
2023/10/16 08:18:13;;;;;;;;;;;19.50;47.30;;;;;;5053302;28;20007;-63
2023/10/16 08:21:05;;;;;;;;;;;19.50;47.30;;;;;;5036301;28;19921;-64
2023/10/16 08:23:35;;;;;;;;;;;19.50;47.40;;;;;;5049423;28;19970;-63
2023/10/16 08:26:05;;;;;;;;;;;19.50;47.30;;;;;;5053349;28;19928;-64
2023/10/16 08:28:36;;;;;;;;;;;19.50;47.40;;;;;;5052474;28;19984;-64
2023/10/16 08:31:22;;;;;;;;;;;19.50;47.40;;;;;;5050973;28;19960;-65
2023/10/16 08:33:51;;;;;;;;;;;19.50;47.40;;;;;;5051087;28;19967;-63
2023/10/16 08:36:19;;;;;;;;;;;19.50;47.40;;;;;;5051646;28;20418;-63
2023/10/16 08:38:52;;;;;;;;;;;19.50;47.50;;;;;;5052713;28;19921;-64
2023/10/16 08:41:22;;;;;;;;;;;19.50;47.50;;;;;;5052394;28;19982;-66
2023/10/16 08:44:03;;;;;;;;;;;19.50;47.50;;;;;;5051387;28;19920;-64
2023/10/16 08:46:34;;;;;;;;;;;19.50;47.50;;;;;;5052866;28;19955;-63
2023/10/16 08:49:03;;;;;;;;;;;19.50;47.60;;;;;;5049184;28;19921;-66
2023/10/16 08:51:30;;;;;;;;;;;19.50;47.60;;;;;;5051769;28;19927;-63
2023/10/16 08:54:01;;;;;;;;;;;19.50;47.60;;;;;;5052358;28;19966;-65
2023/10/16 08:56:28;;;;;;;;;;;19.50;47.70;;;;;;5041436;28;19951;-64
2023/10/16 08:58:56;;;;;;;;;;;19.50;47.60;;;;;;5052321;28;19940;-65
2023/10/16 09:01:23;;;;;;;;;;;19.50;47.70;;;;;;5052079;28;19920;-68
2023/10/16 09:03:54;;;;;;;;;;;19.60;47.70;;;;;;5045075;28;19921;-64
2023/10/16 09:06:22;;;;;;;;;;;19.50;47.70;;;;;;5047456;28;20031;-64
2023/10/16 09:08:49;;;;;;;;;;;19.60;47.80;;;;;;5047470;28;19921;-66
2023/10/16 09:11:16;;;;;;;;;;;19.60;47.80;;;;;;5051412;28;19920;-65
2023/10/16 09:13:49;;;;;;;;;;;19.60;47.80;;;;;;5049638;28;19928;-66
2023/10/16 09:16:20;;;;;;;;;;;19.60;47.90;;;;;;5051688;28;20401;-63
2023/10/16 09:18:47;;;;;;;;;;;19.60;47.90;;;;;;5049661;28;19925;-64
2023/10/16 09:21:22;;;;;;;;;;;19.60;47.90;;;;;;5051056;28;20012;-64
2023/10/16 09:23:52;;;;;;;;;;;19.60;47.90;;;;;;5051278;28;20152;-65
2023/10/16 09:26:19;;;;;;;;;;;19.60;47.90;;;;;;5051691;28;19971;-66
2023/10/16 09:28:48;;;;;;;;;;;19.60;47.90;;;;;;5051038;28;19921;-65
2023/10/16 09:31:18;;;;;;;;;;;19.60;48.00;;;;;;5052563;28;19925;-63
2023/10/16 09:33:46;;;;;;;;;;;19.60;48.00;;;;;;5045900;28;20016;-63
2023/10/16 09:36:17;;;;;;;;;;;19.60;48.00;;;;;;5049781;28;19927;-65
2023/10/16 09:38:45;;;;;;;;;;;19.60;48.10;;;;;;5050609;28;19928;-65
2023/10/16 09:44:07;;;;;;;;;;;19.60;48.10;;;;;;5045777;28;19925;-65
2023/10/16 09:49:21;;;;;;;;;;;19.60;48.10;;;;;;5050547;28;19921;-65
2023/10/16 09:51:48;;;;;;;;;;;19.60;48.20;;;;;;5052528;28;19927;-65
2023/10/16 09:54:15;;;;;;;;;;;19.60;48.20;;;;;;5051522;28;20400;-64
2023/10/16 09:56:48;;;;;;;;;;;19.60;48.20;;;;;;5053134;28;19978;-63
2023/10/16 09:59:18;;;;;;;;;;;19.70;48.20;;;;;;5046574;28;19925;-64
2023/10/16 10:01:45;;;;;;;;;;;19.70;48.20;;;;;;5032599;28;20405;-65
2023/10/16 10:04:12;;;;;;;;;;;19.60;48.20;;;;;;5047167;28;20291;-64
2023/10/16 10:06:39;;;;;;;;;;;19.70;48.20;;;;;;5039306;28;19921;-62
2023/10/16 10:09:22;;;;;;;;;;;19.70;48.20;;;;;;5050816;28;19921;-68
2023/10/16 10:12:03;;;;;;;;;;;19.70;48.20;;;;;;5051086;28;19924;-64
2023/10/16 10:14:34;;;;;;;;;;;19.70;48.20;;;;;;5050005;28;19920;-66
2023/10/16 10:17:03;;;;;;;;;;;19.70;48.30;;;;;;5047878;28;20351;-67
2023/10/16 10:19:35;;;;;;;;;;;19.70;48.90;;;;;;5047179;28;19925;-67
2023/10/16 10:22:15;;;;;;;;;;;19.70;48.30;;;;;;5051831;28;19925;-67
2023/10/16 10:24:45;;;;;;;;;;;19.70;48.30;;;;;;5041606;28;19921;-67
2023/10/16 10:27:16;;;;;;;;;;;19.70;48.30;;;;;;5039406;28;19921;-66
2023/10/16 10:29:43;;;;;;;;;;;19.70;48.90;;;;;;5038957;28;19921;-67
2023/10/16 10:32:12;;;;;;;;;;;19.70;48.30;;;;;;5039502;28;19928;-65
2023/10/16 10:34:39;;;;;;;;;;;19.70;48.30;;;;;;5048285;28;19928;-66
2023/10/16 10:37:20;;;;;;;;;;;19.70;48.40;;;;;;5051001;28;19925;-67
2023/10/16 10:39:47;;;;;;;;;;;19.70;48.30;;;;;;5050241;28;19921;-68
2023/10/16 10:42:23;;;;;;;;;;;19.70;48.30;;;;;;5051474;28;19963;-68
2023/10/16 10:44:54;;;;;;;;;;;19.70;48.40;;;;;;5042722;28;19921;-68
2023/10/16 10:47:21;;;;;;;;;;;19.70;48.30;;;;;;5045827;28;20287;-65
2023/10/16 10:49:49;;;;;;;;;;;19.70;48.20;;;;;;5048679;28;19921;-64
2023/10/16 10:52:16;;;;;;;;;;;19.70;48.20;;;;;;5050497;28;19933;-64
2023/10/16 10:54:43;;;;;;;;;;;19.70;48.20;;;;;;5051170;28;19920;-65
2023/10/16 10:57:17;;;;;;;;;;;19.70;48.20;;;;;;5050142;28;19979;-66
2023/10/16 10:59:47;;;;;;;;;;;19.70;48.10;;;;;;5047346;28;19932;-65
2023/10/16 11:02:22;;;;;;;;;;;19.70;48.10;;;;;;5049849;28;19921;-65
2023/10/16 11:04:53;;;;;;;;;;;19.70;48.00;;;;;;5048456;28;19924;-64
2023/10/16 11:07:25;;;;;;;;;;;19.70;48.10;;;;;;5049715;28;20016;-66
2023/10/16 11:09:52;;;;;;;;;;;19.70;48.10;;;;;;5050780;28;19921;-65
2023/10/16 11:12:24;;;;;;;;;;;19.70;48.10;;;;;;5049477;28;19921;-66
2023/10/16 11:14:51;;;;;;;;;;;19.70;48.10;;;;;;5050305;28;19920;-66
2023/10/16 11:17:31;;;;;;;;;;;19.70;48.00;;;;;;5049400;28;19967;-65
2023/10/16 11:19:57;;;;;;;;;;;19.70;48.00;;;;;;5049364;28;19925;-66
2023/10/16 11:22:27;;;;;;;;;;;19.70;48.00;;;;;;5048125;28;20436;-67
2023/10/16 11:24:54;;;;;;;;;;;19.70;48.00;;;;;;5051108;28;20031;-65
2023/10/16 11:27:23;;;;;;;;;;;19.70;48.00;;;;;;5049766;28;19921;-65
2023/10/16 11:29:52;;;;;;;;;;;19.70;48.00;;;;;;5050064;28;19925;-64
2023/10/16 11:32:25;;;;;;;;;;;19.70;48.00;;;;;;5050118;28;19921;-66
2023/10/16 11:34:59;;;;;;;;;;;19.70;48.10;;;;;;5049852;28;19921;-63
2023/10/16 11:37:26;;;;;;;;;;;19.70;48.10;;;;;;5046721;28;19925;-65
2023/10/16 11:39:56;;;;;;;;;;;19.70;48.10;;;;;;5050053;28;19925;-65
2023/10/16 11:42:25;;;;;;;;;;;19.70;48.10;;;;;;5049370;28;19927;-68
2023/10/16 11:44:51;;;;;;;;;;;19.80;48.30;;;;;;5049949;28;19920;-65
2023/10/16 11:47:18;;;;;;;;;;;19.80;48.20;;;;;;5046248;28;19987;-66
2023/10/16 11:49:53;;;;;;;;;;;19.80;48.30;;;;;;5049269;28;20313;-66
2023/10/16 11:52:23;;;;;;;;;;;19.80;48.30;;;;;;5049352;28;19974;-66
2023/10/16 11:54:52;;;;;;;;;;;19.80;48.30;;;;;;5049897;28;19927;-65
2023/10/16 11:57:19;;;;;;;;;;;19.80;48.40;;;;;;5049428;28;19932;-65
2023/10/16 11:59:51;;;;;;;;;;;19.80;48.40;;;;;;5049496;28;19932;-64
2023/10/16 12:02:19;;;;;;;;;;;19.80;48.40;;;;;;5049601;28;19921;-70
2023/10/16 12:04:47;;;;;;;;;;;19.80;48.40;;;;;;5047744;28;19924;-68
2023/10/16 12:07:14;;;;;;;;;;;19.80;48.40;;;;;;5049761;28;19930;-69
2023/10/16 12:09:42;;;;;;;;;;;19.80;48.40;;;;;;5051437;28;19921;-69
2023/10/16 12:12:19;;;;;;;;;;;19.80;48.50;;;;;;5051302;28;19982;-69
2023/10/16 12:14:48;;;;;;;;;;;19.70;48.40;;;;;;5049473;28;19959;-68
2023/10/16 12:17:15;;;;;;;;;;;19.80;48.60;;;;;;5034559;28;19921;-68
2023/10/16 12:19:41;;;;;;;;;;;19.70;48.60;;;;;;5050421;28;19956;-69
2023/10/16 12:22:09;;;;;;;;;;;19.70;48.70;;;;;;5048750;28;19925;-69
2023/10/16 12:24:36;;;;;;;;;;;19.70;48.80;;;;;;5041076;28;20455;-72
2023/10/16 12:27:03;;;;;;;;;;;19.70;48.90;;;;;;5041347;28;19932;-70
2023/10/16 12:29:29;;;;;;;;;;;19.70;48.90;;;;;;5049118;28;19921;-67
2023/10/16 12:32:00;;;;;;;;;;;19.70;48.80;;;;;;5049902;28;20000;-65
2023/10/16 12:34:31;;;;;;;;;;;19.70;48.70;;;;;;5044798;28;19925;-62
2023/10/16 12:36:58;;;;;;;;;;;19.70;48.70;;;;;;5057580;28;19921;-63
2023/10/16 12:39:25;;;;;;;;;;;19.70;48.70;;;;;;5049294;28;19935;-64
2023/10/16 12:41:53;;;;;;;;;;;19.70;48.70;;;;;;5048763;28;19920;-63
2023/10/16 12:44:20;;;;;;;;;;;19.70;48.70;;;;;;5048909;28;19920;-62
2023/10/16 12:46:47;;;;;;;;;;;19.70;48.60;;;;;;5048994;28;20198;-63
2023/10/16 12:49:17;;;;;;;;;;;19.70;48.60;;;;;;5044646;28;19927;-64
2023/10/16 12:51:44;;;;;;;;;;;19.70;48.60;;;;;;5052616;28;19921;-63
2023/10/16 12:54:12;;;;;;;;;;;19.70;48.60;;;;;;5052623;28;19927;-63
2023/10/16 12:56:41;;;;;;;;;;;19.70;48.50;;;;;;5053015;28;19921;-62
2023/10/16 12:59:08;;;;;;;;;;;19.80;48.60;;;;;;5052689;28;19924;-63
2023/10/16 13:01:36;;;;;;;;;;;19.70;48.40;;;;;;5053010;28;19956;-62
2023/10/16 13:04:06;;;;;;;;;;;19.70;48.40;;;;;;5042897;28;20024;-63
2023/10/16 13:06:34;;;;;;;;;;;19.70;48.40;;;;;;5049932;28;19982;-62
2023/10/16 13:09:02;;;;;;;;;;;19.70;48.40;;;;;;5049066;28;19920;-63
2023/10/16 13:11:29;;;;;;;;;;;19.70;48.30;;;;;;5052873;28;19921;-62
2023/10/16 13:13:56;;;;;;;;;;;19.70;48.30;;;;;;5052115;28;19935;-63
2023/10/16 13:16:25;;;;;;;;;;;19.70;48.30;;;;;;5052790;28;19960;-63
2023/10/16 13:18:57;;;;;;;;;;;19.80;48.40;;;;;;5051734;28;19921;-65
2023/10/16 13:21:32;;;;;;;;;;;19.80;48.40;;;;;;5053418;28;19943;-65
2023/10/16 13:24:04;;;;;;;;;;;19.80;48.40;;;;;;5053604;28;19927;-65
2023/10/16 13:26:31;;;;;;;;;;;19.70;48.20;;;;;;5053115;28;20015;-64
2023/10/16 13:28:58;;;;;;;;;;;19.70;48.20;;;;;;5052346;28;19924;-65
2023/10/16 13:31:25;;;;;;;;;;;19.70;48.30;;;;;;5051917;28;19936;-66
2023/10/16 13:33:52;;;;;;;;;;;19.70;48.20;;;;;;5044560;28;19921;-65
2023/10/16 13:36:19;;;;;;;;;;;19.70;48.30;;;;;;5052152;28;19920;-65
2023/10/16 13:38:46;;;;;;;;;;;19.70;48.30;;;;;;5052906;28;20413;-65
2023/10/16 13:41:18;;;;;;;;;;;19.70;48.20;;;;;;5052460;28;19931;-67
2023/10/16 13:43:46;;;;;;;;;;;19.70;48.30;;;;;;5052278;28;19921;-65
2023/10/16 13:46:13;;;;;;;;;;;19.70;48.20;;;;;;5053213;28;19966;-66
2023/10/16 13:48:45;;;;;;;;;;;19.70;48.20;;;;;;5053529;28;19921;-65
2023/10/16 13:51:16;;;;;;;;;;;19.70;48.10;;;;;;5051434;28;19931;-65
2023/10/16 13:53:43;;;;;;;;;;;19.70;48.10;;;;;;5042910;28;19925;-65
2023/10/16 13:56:10;;;;;;;;;;;19.70;48.10;;;;;;5032447;28;19925;-65
2023/10/16 13:58:38;;;;;;;;;;;19.70;48.00;;;;;;5048829;28;19924;-65
2023/10/16 14:01:05;;;;;;;;;;;19.70;48.00;;;;;;5052512;28;19970;-66
2023/10/16 14:03:33;;;;;;;;;;;19.70;48.00;;;;;;5051303;28;19928;-65
2023/10/16 14:06:00;;;;;;;;;;;19.60;47.90;;;;;;5051291;28;19921;-66
2023/10/16 14:08:30;;;;;;;;;;;19.60;47.80;;;;;;5051321;28;19924;-65
2023/10/16 14:10:58;;;;;;;;;;;19.60;47.90;;;;;;5050953;28;19921;-66
2023/10/16 14:13:28;;;;;;;;;;;19.60;47.80;;;;;;5044104;28;19940;-66
2023/10/16 14:16:07;;;;;;;;;;;19.60;47.80;;;;;;5041664;28;20023;-65
2023/10/16 14:18:34;;;;;;;;;;;19.60;48.30;;;;;;5044506;28;19932;-65
2023/10/16 14:21:08;;;;;;;;;;;19.60;47.80;;;;;;5042989;28;19964;-65
2023/10/16 14:23:35;;;;;;;;;;;19.60;47.90;;;;;;5051027;28;19921;-66
2023/10/16 14:26:04;;;;;;;;;;;19.60;47.90;;;;;;5051181;28;20015;-65
2023/10/16 14:28:34;;;;;;;;;;;19.60;47.90;;;;;;5043324;28;19925;-65
2023/10/16 14:31:02;;;;;;;;;;;19.70;48.00;;;;;;5051017;28;19927;-66
2023/10/16 14:33:30;;;;;;;;;;;19.60;47.80;;;;;;5051896;28;19929;-66
2023/10/16 14:35:57;;;;;;;;;;;19.60;47.70;;;;;;5052054;28;19921;-66
2023/10/16 14:38:24;;;;;;;;;;;19.60;47.50;;;;;;5051950;28;19921;-66
2023/10/16 14:40:51;;;;;;;;;;;19.60;47.50;;;;;;5042746;28;19975;-65
2023/10/16 14:43:17;;;;;;;;;;;19.50;47.20;;;;;;5050425;28;19938;-66
2023/10/16 14:45:47;;;;;;;;;;;19.50;47.30;;;;;;5034042;28;19925;-65
2023/10/16 14:48:15;;;;;;;;;;;19.60;47.40;;;;;;5031817;28;19921;-66
2023/10/16 14:50:44;;;;;;;;;;;19.50;47.30;;;;;;5040232;28;19928;-65
2023/10/16 14:53:11;;;;;;;;;;;19.50;47.30;;;;;;5050656;28;19920;-65
2023/10/16 14:55:39;;;;;;;;;;;19.50;47.30;;;;;;5050700;28;19932;-65
2023/10/16 14:58:06;;;;;;;;;;;19.50;47.30;;;;;;5035921;28;19928;-66
2023/10/16 15:00:37;;;;;;;;;;;19.50;47.20;;;;;;5050725;28;19924;-66
2023/10/16 15:03:04;;;;;;;;;;;19.50;47.20;;;;;;5057607;28;20247;-67
2023/10/16 15:05:35;;;;;;;;;;;19.50;47.30;;;;;;5050883;28;19932;-65
2023/10/16 15:08:04;;;;;;;;;;;19.50;47.30;;;;;;5042434;28;19921;-65
2023/10/16 15:10:32;;;;;;;;;;;19.50;47.40;;;;;;5049914;28;19928;-66
2023/10/16 15:12:59;;;;;;;;;;;19.50;47.50;;;;;;5050579;28;20011;-67
2023/10/16 15:15:26;;;;;;;;;;;19.50;47.50;;;;;;5050270;28;19932;-65
2023/10/16 15:17:54;;;;;;;;;;;19.60;47.60;;;;;;5050377;28;19925;-66
2023/10/16 15:20:22;;;;;;;;;;;19.50;47.60;;;;;;5050221;28;19925;-65
2023/10/16 15:22:50;;;;;;;;;;;19.50;47.60;;;;;;5050362;28;20328;-65
2023/10/16 15:25:17;;;;;;;;;;;19.50;47.60;;;;;;5050213;28;19928;-65
2023/10/16 15:27:46;;;;;;;;;;;19.50;47.60;;;;;;5040629;28;19995;-65
2023/10/16 15:30:13;;;;;;;;;;;19.50;47.60;;;;;;5035328;28;19920;-65
2023/10/16 15:32:40;;;;;;;;;;;19.50;47.60;;;;;;5043252;28;19925;-66
2023/10/16 15:35:08;;;;;;;;;;;19.50;47.60;;;;;;5049835;28;19932;-65
2023/10/16 15:37:36;;;;;;;;;;;19.50;47.70;;;;;;5050422;28;19928;-65
2023/10/16 15:40:05;;;;;;;;;;;19.50;47.70;;;;;;5050246;28;20084;-65
2023/10/16 15:42:32;;;;;;;;;;;19.50;47.70;;;;;;5042184;28;19921;-65
2023/10/16 15:44:59;;;;;;;;;;;19.50;47.70;;;;;;5049923;28;19925;-66
2023/10/16 15:47:26;;;;;;;;;;;19.50;47.70;;;;;;5042651;28;20434;-66
2023/10/16 15:49:54;;;;;;;;;;;19.50;47.70;;;;;;5032089;28;19943;-65
2023/10/16 15:52:21;;;;;;;;;;;19.50;47.70;;;;;;5045124;28;19921;-65
2023/10/16 15:54:48;;;;;;;;;;;19.50;47.70;;;;;;5040045;28;20019;-66